createdAt,value
2023-04-23T00:01:59.717Z,93661.66
2023-04-23T00:04:27.130Z,93657.47
2023-04-23T00:06:54.227Z,93649.78
2023-04-23T00:09:23.112Z,93653.19
2023-04-23T00:11:50.129Z,93651.84
2023-04-23T00:14:17.277Z,93646.06
2023-04-23T00:16:44.325Z,93644.72
2023-04-23T00:19:11.222Z,93644.16
2023-04-23T00:21:38.016Z,93647.06
2023-04-23T00:24:04.955Z,93638.63
2023-04-23T00:26:31.663Z,93647.06
2023-04-23T00:28:58.413Z,93641.00
2023-04-23T00:31:27.275Z,93643.69
2023-04-23T00:33:54.252Z,93642.69
2023-04-23T00:36:20.898Z,93633.75
2023-04-23T00:38:48.215Z,93640.19
2023-04-23T00:41:15.586Z,93640.03
2023-04-23T00:43:42.299Z,93645.00
2023-04-23T00:46:09.238Z,93628.53
2023-04-23T00:48:36.486Z,93635.66
2023-04-23T00:51:06.896Z,93636.09
2023-04-23T00:53:33.930Z,93623.47
2023-04-23T00:56:02.198Z,93634.84
2023-04-23T00:58:29.761Z,93629.50
2023-04-23T01:00:57.034Z,93645.13
2023-04-23T01:03:25.856Z,93643.09
2023-04-23T01:05:53.148Z,93654.69
2023-04-23T01:08:20.717Z,93638.25
2023-04-23T01:10:47.807Z,93648.91
2023-04-23T01:13:14.904Z,93659.13
2023-04-23T01:15:42.482Z,93651.38
2023-04-23T01:18:09.359Z,93649.38
2023-04-23T01:20:36.330Z,93652.19
2023-04-23T01:23:03.840Z,93632.78
2023-04-23T01:25:30.880Z,93656.19
2023-04-23T01:27:58.370Z,93646.03
2023-04-23T01:30:29.834Z,93649.34
2023-04-23T01:32:56.890Z,93658.09
2023-04-23T01:35:24.594Z,93653.00
2023-04-23T01:37:54.770Z,93653.66
2023-04-23T01:40:21.908Z,93651.16
2023-04-23T01:42:49.060Z,93647.63
2023-04-23T01:45:17.810Z,93635.13
2023-04-23T01:47:44.654Z,93654.16
2023-04-23T01:50:11.588Z,93648.63
2023-04-23T01:52:38.530Z,93633.91
2023-04-23T01:55:05.670Z,93644.81
2023-04-23T01:57:32.905Z,93639.00
2023-04-23T02:00:13.107Z,93644.53
2023-04-23T02:02:41.531Z,93642.88
2023-04-23T02:05:18.917Z,93641.22
2023-04-23T02:07:47.519Z,93634.31
2023-04-23T02:10:14.693Z,93638.63
2023-04-23T02:12:41.682Z,93642.66
2023-04-23T02:15:09.840Z,93653.53
2023-04-23T02:17:36.675Z,93648.28
2023-04-23T02:20:04.051Z,93655.16
2023-04-23T02:22:31.847Z,93648.63
2023-04-23T02:24:59.166Z,93649.56
2023-04-23T02:27:25.978Z,93646.97
2023-04-23T02:29:53.632Z,93635.47
2023-04-23T02:32:20.422Z,93653.75
2023-04-23T02:34:47.180Z,93641.38
2023-04-23T02:37:13.922Z,93651.19
2023-04-23T02:39:40.830Z,93650.56
2023-04-23T02:42:07.610Z,93662.34
2023-04-23T02:44:34.392Z,93648.13
2023-04-23T02:47:01.365Z,93656.88
2023-04-23T02:49:28.263Z,93666.66
2023-04-23T02:51:55.013Z,93656.88
2023-04-23T02:54:21.838Z,93667.47
2023-04-23T02:56:48.570Z,93659.44
2023-04-23T02:59:15.409Z,93658.84
2023-04-23T03:01:42.132Z,93663.81
2023-04-23T03:04:09.322Z,93661.78
2023-04-23T03:06:37.073Z,93657.06
2023-04-23T03:09:03.964Z,93652.34
2023-04-23T03:11:31.845Z,93642.78
2023-04-23T03:13:58.662Z,93656.16
2023-04-23T03:16:27.169Z,93645.16
2023-04-23T03:18:53.905Z,93651.34
2023-04-23T03:21:20.733Z,93651.66
2023-04-23T03:23:47.502Z,93647.25
2023-04-23T03:26:14.295Z,93643.94
2023-04-23T03:28:41.048Z,93645.53
2023-04-23T03:31:07.906Z,93643.66
2023-04-23T03:33:34.900Z,93633.00
2023-04-23T03:36:01.650Z,93638.63
2023-04-23T03:38:28.354Z,93642.06
2023-04-23T03:40:55.110Z,93640.81
2023-04-23T03:43:21.835Z,93639.47
2023-04-23T03:45:48.681Z,93638.63
2023-04-23T03:48:16.047Z,93639.19
2023-04-23T03:50:42.777Z,93638.19
2023-04-23T03:53:10.325Z,93641.94
2023-04-23T03:55:36.989Z,93644.94
2023-04-23T03:58:03.933Z,93639.47
2023-04-23T04:00:30.642Z,93640.50
2023-04-23T04:02:57.621Z,93631.88
2023-04-23T04:05:25.053Z,93634.38
2023-04-23T04:07:51.937Z,93640.50
2023-04-23T04:10:18.768Z,93634.59
2023-04-23T04:12:47.911Z,93644.31
2023-04-23T04:15:16.641Z,93640.50
2023-04-23T04:17:46.059Z,93639.00
2023-04-23T04:20:13.127Z,93630.81
2023-04-23T04:22:40.233Z,93617.72
2023-04-23T04:25:07.616Z,93620.09
2023-04-23T04:27:34.741Z,93633.03
2023-04-23T04:30:02.199Z,93634.41
2023-04-23T04:32:28.853Z,93633.25
2023-04-23T04:34:55.580Z,93635.56
2023-04-23T04:37:22.162Z,93630.63
2023-04-23T04:39:48.777Z,93623.78
2023-04-23T04:42:15.942Z,93630.88
2023-04-23T04:44:43.880Z,93635.06
2023-04-23T04:47:10.962Z,93631.19
2023-04-23T04:49:38.321Z,93641.25
2023-04-23T04:52:05.068Z,93638.00
2023-04-23T04:54:31.758Z,93642.97
2023-04-23T04:56:58.343Z,93644.13
2023-04-23T04:59:24.989Z,93645.34
2023-04-23T05:01:51.619Z,93644.56
2023-04-23T05:04:18.458Z,93659.34
2023-04-23T05:06:45.162Z,93650.78
2023-04-23T05:09:11.978Z,93657.09
2023-04-23T05:11:38.711Z,93655.28
2023-04-23T05:14:05.390Z,93653.38
2023-04-23T05:16:32.167Z,93660.59
2023-04-23T05:18:58.788Z,93653.75
2023-04-23T05:21:27.555Z,93653.75
2023-04-23T05:23:55.023Z,93656.56
2023-04-23T05:26:21.615Z,93654.75
2023-04-23T05:28:48.342Z,93656.25
2023-04-23T05:31:15.045Z,93647.31
2023-04-23T05:33:49.997Z,93663.56
2023-04-23T05:36:17.633Z,93655.19
2023-04-23T05:38:44.214Z,93645.75
2023-04-23T05:41:10.990Z,93656.78
2023-04-23T05:43:37.812Z,93649.91
2023-04-23T05:46:07.820Z,93653.16
2023-04-23T05:48:34.817Z,93651.38
2023-04-23T05:51:01.534Z,93650.94
2023-04-23T05:53:28.381Z,93642.50
2023-04-23T05:55:55.076Z,93651.72
2023-04-23T05:58:21.790Z,93655.22
2023-04-23T06:00:48.515Z,93650.47
2023-04-23T06:03:15.326Z,93657.78
2023-04-23T06:05:43.343Z,93648.28
2023-04-23T06:08:10.041Z,93655.63
2023-04-23T06:10:36.709Z,93656.00
2023-04-23T06:13:03.446Z,93652.38
2023-04-23T06:15:30.059Z,93650.47
2023-04-23T06:17:56.818Z,93661.41
2023-04-23T06:20:23.465Z,93662.59
2023-04-23T06:22:50.190Z,93661.75
2023-04-23T06:25:16.793Z,93661.50
2023-04-23T06:27:43.392Z,93660.78
2023-04-23T06:30:10.283Z,93658.72
2023-04-23T06:32:37.104Z,93658.56
2023-04-23T06:35:04.700Z,93660.78
2023-04-23T06:37:31.851Z,93662.19
2023-04-23T06:39:59.493Z,93653.28
2023-04-23T06:42:26.352Z,93662.66
2023-04-23T06:44:53.021Z,93660.94
2023-04-23T06:47:19.965Z,93656.38
2023-04-23T06:49:46.589Z,93658.84
2023-04-23T06:52:13.388Z,93650.97
2023-04-23T06:54:40.454Z,93641.34
2023-04-23T06:57:07.272Z,93641.94
2023-04-23T06:59:33.911Z,93641.78
2023-04-23T07:02:00.840Z,93641.03
2023-04-23T07:04:27.622Z,93634.78
2023-04-23T07:06:55.204Z,93632.72
2023-04-23T07:09:21.995Z,93626.66
2023-04-23T07:11:48.704Z,93627.97
2023-04-23T07:14:15.362Z,93622.97
2023-04-23T07:16:41.997Z,93617.13
2023-04-23T07:19:08.608Z,93618.91
2023-04-23T07:21:35.981Z,93615.38
2023-04-23T07:24:07.316Z,93611.38
2023-04-23T07:26:37.365Z,93608.06
2023-04-23T07:29:04.635Z,93610.19
2023-04-23T07:31:31.351Z,93612.28
2023-04-23T07:33:57.993Z,93605.22
2023-04-23T07:36:24.867Z,93606.25
2023-04-23T07:38:51.596Z,93601.56
2023-04-23T07:41:18.683Z,93590.81
2023-04-23T07:43:45.834Z,93605.13
2023-04-23T07:46:12.634Z,93595.75
2023-04-23T07:48:39.365Z,93586.06
2023-04-23T07:51:06.820Z,93595.19
2023-04-23T07:53:33.812Z,93582.38
2023-04-23T07:56:00.708Z,93582.78
2023-04-23T07:58:27.330Z,93575.94
2023-04-23T08:00:54.057Z,93557.25
2023-04-23T08:03:21.213Z,93563.00
2023-04-23T08:05:48.123Z,93558.13
2023-04-23T08:08:15.026Z,93565.59
2023-04-23T08:10:42.021Z,93558.66
2023-04-23T08:13:08.678Z,93557.50
2023-04-23T08:15:35.366Z,93547.06
2023-04-23T08:18:02.694Z,93541.72
2023-04-23T08:20:29.764Z,93544.34
2023-04-23T08:22:56.775Z,93541.13
2023-04-23T08:25:23.674Z,93525.31
2023-04-23T08:27:50.330Z,93541.88
2023-04-23T08:30:17.024Z,93528.81
2023-04-23T08:32:43.695Z,93534.06
2023-04-23T08:35:10.621Z,93527.19
2023-04-23T08:37:39.101Z,93529.25
2023-04-23T08:40:07.652Z,93519.66
2023-04-23T08:42:40.374Z,93525.59
2023-04-23T08:45:07.739Z,93523.34
2023-04-23T08:47:35.807Z,93520.56
2023-04-23T08:50:04.545Z,93517.06
2023-04-23T08:52:34.505Z,93514.47
2023-04-23T08:55:02.217Z,93510.72
2023-04-23T08:57:29.094Z,93510.97
2023-04-23T08:59:55.847Z,93507.72
2023-04-23T09:02:23.272Z,93502.25
2023-04-23T09:04:51.794Z,93501.50
2023-04-23T09:07:19.413Z,93495.34
2023-04-23T09:09:46.205Z,93491.16
2023-04-23T09:12:12.875Z,93491.03
2023-04-23T09:14:39.602Z,93490.50
2023-04-23T09:17:06.874Z,93469.59
2023-04-23T09:19:33.579Z,93484.69
2023-04-23T09:22:03.284Z,93487.19
2023-04-23T09:24:30.343Z,93487.31
2023-04-23T09:26:58.549Z,93486.31
2023-04-23T09:29:25.448Z,93475.00
2023-04-23T09:32:03.104Z,93479.81
2023-04-23T09:34:29.815Z,93474.81
2023-04-23T09:36:56.606Z,93469.34
2023-04-23T09:39:24.250Z,93465.97
2023-04-23T09:41:54.261Z,93468.13
2023-04-23T09:44:26.594Z,93459.31
2023-04-23T09:46:53.415Z,93456.19
2023-04-23T09:49:20.253Z,93456.56
2023-04-23T09:51:48.882Z,93456.78
2023-04-23T09:54:22.944Z,93447.78
2023-04-23T09:56:51.334Z,93450.28
2023-04-23T09:59:36.047Z,93441.09
2023-04-23T10:02:13.379Z,93444.75
2023-04-23T10:04:40.458Z,93443.88
2023-04-23T10:07:19.029Z,93440.97
2023-04-23T10:09:47.841Z,93440.75
2023-04-23T10:14:46.475Z,93428.91
2023-04-23T10:17:13.682Z,93431.19
2023-04-23T10:19:43.546Z,93427.56
2023-04-23T10:22:19.365Z,93416.91
2023-04-23T10:24:49.127Z,93429.03
2023-04-23T10:27:27.010Z,93413.47
2023-04-23T10:30:01.085Z,93416.44
2023-04-23T10:32:28.272Z,93403.94
2023-04-23T10:34:54.927Z,93412.88
2023-04-23T10:37:22.450Z,93412.16
2023-04-23T10:39:51.119Z,93401.06
2023-04-23T10:42:18.346Z,93399.66
2023-04-23T10:44:59.044Z,93393.59
2023-04-23T10:47:29.791Z,93396.69
2023-04-23T10:49:56.547Z,93390.69
2023-04-23T10:52:25.821Z,93384.78
2023-04-23T10:55:02.333Z,93388.53
2023-04-23T10:57:29.051Z,93390.94
2023-04-23T10:59:57.128Z,93384.53
2023-04-23T11:02:24.878Z,93381.16
2023-04-23T11:04:58.877Z,93373.00
2023-04-23T11:07:33.087Z,93374.25
2023-04-23T11:10:01.204Z,93355.56
2023-04-23T11:12:27.865Z,93361.72
2023-04-23T11:14:55.882Z,93355.50
2023-04-23T11:17:24.583Z,93361.72
2023-04-23T11:20:18.977Z,93354.53
2023-04-23T11:22:49.843Z,93355.16
2023-04-23T11:25:23.647Z,93353.88
2023-04-23T11:27:51.683Z,93346.94
2023-04-23T11:30:26.170Z,93341.97
2023-04-23T11:32:55.504Z,93335.75
2023-04-23T11:35:30.739Z,93326.25
2023-04-23T11:37:57.613Z,93335.88
2023-04-23T11:40:24.521Z,93329.56
2023-04-23T11:42:54.699Z,93329.91
2023-04-23T11:45:23.800Z,93333.44
2023-04-23T11:47:56.509Z,93325.53
2023-04-23T11:50:33.116Z,93335.94
2023-04-23T11:53:09.029Z,93335.53
2023-04-23T11:55:35.846Z,93343.66
2023-04-23T11:58:03.668Z,93352.19
2023-04-23T12:00:30.447Z,93359.59
2023-04-23T12:03:02.615Z,93371.53
2023-04-23T12:05:30.546Z,93400.31
2023-04-23T12:08:32.113Z,93395.94
2023-04-23T12:11:03.559Z,93392.16
2023-04-23T12:13:33.676Z,93406.88
2023-04-23T12:16:05.430Z,93406.06
2023-04-23T12:18:40.386Z,93394.38
2023-04-23T12:21:11.949Z,93390.34
2023-04-23T12:23:40.153Z,93394.38
2023-04-23T12:26:15.435Z,93392.25
2023-04-23T12:28:52.400Z,93395.66
2023-04-23T12:31:24.349Z,93391.56
2023-04-23T12:34:02.963Z,93401.06
2023-04-23T12:36:31.783Z,93396.53
2023-04-23T12:39:30.902Z,93398.13
2023-04-23T12:42:06.012Z,93392.94
2023-04-23T12:44:35.913Z,93398.22
2023-04-23T12:47:07.829Z,93407.75
2023-04-23T12:49:36.369Z,93402.88
2023-04-23T12:52:04.019Z,93407.41
2023-04-23T12:54:33.318Z,93390.59
2023-04-23T12:57:02.044Z,93380.59
2023-04-23T12:59:29.288Z,93380.72
2023-04-23T13:01:56.186Z,93372.47
2023-04-23T13:04:22.966Z,93371.03
2023-04-23T13:06:49.707Z,93369.97
2023-04-23T13:09:16.546Z,93376.00
2023-04-23T13:11:43.305Z,93369.06
2023-04-23T13:14:10.076Z,93352.25
2023-04-23T13:16:36.974Z,93356.59
2023-04-23T13:19:03.735Z,93346.22
2023-04-23T13:21:30.562Z,93351.06
2023-04-23T13:23:57.319Z,93351.09
2023-04-23T13:26:24.261Z,93349.53
2023-04-23T13:28:51.010Z,93344.19
2023-04-23T13:31:17.982Z,93350.44
2023-04-23T13:33:44.731Z,93344.44
2023-04-23T13:36:11.473Z,93341.91
2023-04-23T13:38:38.274Z,93340.63
2023-04-23T13:41:05.069Z,93332.28
2023-04-23T13:43:31.777Z,93328.41
2023-04-23T13:45:59.120Z,93322.00
2023-04-23T13:48:28.904Z,93318.22
2023-04-23T13:50:55.951Z,93326.22
2023-04-23T13:53:22.994Z,93321.66
2023-04-23T13:55:49.870Z,93320.81
2023-04-23T13:58:16.828Z,93315.03
2023-04-23T14:00:44.009Z,93315.00
2023-04-23T14:03:11.246Z,93311.38
2023-04-23T14:05:38.573Z,93320.94
2023-04-23T14:08:05.543Z,93308.22
2023-04-23T14:10:32.289Z,93296.72
2023-04-23T14:12:58.994Z,93312.88
2023-04-23T14:15:25.877Z,93303.72
2023-04-23T14:17:53.217Z,93296.94
2023-04-23T14:20:20.901Z,93303.72
2023-04-23T14:22:55.628Z,93291.41
2023-04-23T14:25:36.341Z,93292.97
2023-04-23T14:28:29.686Z,93288.44
2023-04-23T14:30:57.510Z,93290.94
2023-04-23T14:33:24.477Z,93286.53
2023-04-23T14:35:51.216Z,93294.84
2023-04-23T14:38:18.329Z,93296.25
2023-04-23T14:40:45.206Z,93289.34
2023-04-23T14:43:15.556Z,93292.59
2023-04-23T14:45:43.034Z,93293.56
2023-04-23T14:48:09.885Z,93296.66
2023-04-23T14:50:36.700Z,93293.88
2023-04-23T14:53:07.813Z,93284.03
2023-04-23T14:55:34.530Z,93283.16
2023-04-23T14:58:01.668Z,93281.94
2023-04-23T15:00:28.525Z,93286.59
2023-04-23T15:02:55.567Z,93278.00
2023-04-23T15:05:22.415Z,93274.94
2023-04-23T15:07:49.149Z,93278.41
2023-04-23T15:10:16.194Z,93280.22
2023-04-23T15:12:49.460Z,93287.84
2023-04-23T15:15:43.684Z,93287.00
2023-04-23T15:18:13.732Z,93280.44
2023-04-23T15:20:40.818Z,93278.97
2023-04-23T15:23:07.579Z,93283.47
2023-04-23T15:25:34.845Z,93279.97
2023-04-23T15:28:01.785Z,93282.03
2023-04-23T15:30:28.775Z,93275.38
2023-04-23T15:32:55.840Z,93282.19
2023-04-23T15:35:23.538Z,93276.22
2023-04-23T15:37:50.801Z,93283.53
2023-04-23T15:40:17.626Z,93284.78
2023-04-23T15:42:48.126Z,93272.06
2023-04-23T15:45:14.994Z,93287.63
2023-04-23T15:47:42.272Z,93292.03
2023-04-23T15:50:10.877Z,93292.03
2023-04-23T15:52:38.060Z,93298.69
2023-04-23T15:55:05.884Z,93304.75
2023-04-23T15:57:32.536Z,93316.00
2023-04-23T15:59:59.358Z,93326.81
2023-04-23T16:02:26.354Z,93339.44
2023-04-23T16:04:53.158Z,93357.97
2023-04-23T16:07:19.810Z,93363.41
2023-04-23T16:09:46.500Z,93367.66
2023-04-23T16:12:13.212Z,93367.13
2023-04-23T16:14:40.478Z,93364.53
2023-04-23T16:17:07.332Z,93353.00
2023-04-23T16:19:34.090Z,93353.78
2023-04-23T16:22:00.993Z,93349.88
2023-04-23T16:24:27.769Z,93345.19
2023-04-23T16:26:54.785Z,93331.59
2023-04-23T16:29:23.014Z,93331.31
2023-04-23T16:31:50.329Z,93338.63
2023-04-23T16:34:17.417Z,93334.97
2023-04-23T16:36:44.157Z,93326.63
2023-04-23T16:39:11.505Z,93330.78
2023-04-23T16:41:38.435Z,93319.03
2023-04-23T16:44:05.540Z,93324.03
2023-04-23T16:46:32.364Z,93330.28
2023-04-23T16:48:59.319Z,93316.16
2023-04-23T16:51:26.997Z,93322.44
2023-04-23T16:53:54.291Z,93318.78
2023-04-23T16:56:21.452Z,93312.75
2023-04-23T16:58:48.326Z,93309.09
2023-04-23T17:01:16.609Z,93298.66
2023-04-23T17:03:44.381Z,93285.09
2023-04-23T17:06:15.581Z,93266.00
2023-04-23T17:08:42.266Z,93269.41
2023-04-23T17:11:09.055Z,93262.09
2023-04-23T17:13:35.701Z,93258.16
2023-04-23T17:16:02.736Z,93255.81
2023-04-23T17:18:29.932Z,93244.31
2023-04-23T17:20:56.822Z,93244.03
2023-04-23T17:23:23.590Z,93241.19
2023-04-23T17:25:50.309Z,93233.34
2023-04-23T17:28:18.602Z,93228.63
2023-04-23T17:30:46.124Z,93221.84
2023-04-23T17:33:13.001Z,93229.38
2023-04-23T17:35:40.629Z,93224.44
2023-04-23T17:38:07.285Z,93220.53
2023-04-23T17:40:34.293Z,93224.97
2023-04-23T17:43:01.201Z,93224.69
2023-04-23T17:45:27.980Z,93220.00
2023-04-23T17:47:54.759Z,93207.16
2023-04-23T17:50:22.139Z,93221.03
2023-04-23T17:52:48.925Z,93221.50
2023-04-23T17:55:15.584Z,93224.38
2023-04-23T17:57:42.365Z,93226.69
2023-04-23T18:00:10.020Z,93229.66
2023-04-23T18:02:40.485Z,93226.53
2023-04-23T18:05:12.018Z,93237.00
2023-04-23T18:07:39.566Z,93240.41
2023-04-23T18:10:07.595Z,93246.63
2023-04-23T18:12:34.962Z,93248.91
2023-04-23T18:15:01.981Z,93228.03
2023-04-23T18:17:28.746Z,93236.09
2023-04-23T18:19:55.750Z,93221.47
2023-04-23T18:22:22.639Z,93233.97
2023-04-23T18:24:50.593Z,93234.44
2023-04-23T18:27:17.649Z,93237.84
2023-04-23T18:29:44.872Z,93233.34
2023-04-23T18:32:20.976Z,93227.75
2023-04-23T18:34:54.984Z,93224.13
2023-04-23T18:37:38.164Z,93218.16
2023-04-23T18:40:06.365Z,93216.28
2023-04-23T18:42:33.692Z,93218.59
2023-04-23T18:45:00.563Z,93222.78
2023-04-23T18:47:37.558Z,93222.66
2023-04-23T18:50:09.710Z,93220.94
2023-04-23T18:52:36.441Z,93225.38
2023-04-23T18:55:03.335Z,93227.44
2023-04-23T18:57:30.241Z,93221.44
2023-04-23T18:59:57.222Z,93222.34
2023-04-23T19:02:34.495Z,93221.34
2023-04-23T19:05:01.853Z,93224.44
2023-04-23T19:07:28.952Z,93218.69
2023-04-23T19:09:55.887Z,93220.91
2023-04-23T19:12:22.886Z,93220.91
2023-04-23T19:14:49.788Z,93222.66
2023-04-23T19:17:18.761Z,93222.84
2023-04-23T19:19:46.313Z,93207.94
2023-04-23T19:22:13.538Z,93218.81
2023-04-23T19:24:40.343Z,93226.00
2023-04-23T19:27:07.855Z,93232.22
2023-04-23T19:29:34.969Z,93236.84
2023-04-23T19:32:02.348Z,93235.06
2023-04-23T19:34:29.713Z,93240.47
2023-04-23T19:36:56.891Z,93240.34
2023-04-23T19:39:23.918Z,93239.81
2023-04-23T19:41:50.619Z,93231.19
2023-04-23T19:44:17.495Z,93233.66
2023-04-23T19:46:44.587Z,93235.94
2023-04-23T19:49:11.647Z,93234.56
2023-04-23T19:51:39.541Z,93235.63
2023-04-23T19:54:06.755Z,93241.34
2023-04-23T19:56:33.678Z,93228.69
2023-04-23T19:59:00.675Z,93243.66
2023-04-23T20:01:30.173Z,93231.72
2023-04-23T20:03:57.460Z,93242.66
2023-04-23T20:06:24.155Z,93253.69
2023-04-23T20:09:18.096Z,93253.44
2023-04-23T20:11:48.392Z,93252.59
2023-04-23T20:14:15.194Z,93257.97
2023-04-23T20:16:42.028Z,93265.97
2023-04-23T20:19:12.011Z,93250.56
2023-04-23T20:21:39.257Z,93251.50
2023-04-23T20:24:07.559Z,93265.22
2023-04-23T20:26:35.554Z,93256.94
2023-04-23T20:29:02.318Z,93261.97
2023-04-23T20:31:29.242Z,93269.38
2023-04-23T20:33:56.536Z,93259.94
2023-04-23T20:36:28.981Z,93266.69
2023-04-23T20:38:58.101Z,93265.22
2023-04-23T20:41:31.062Z,93259.81
2023-04-23T20:43:59.040Z,93261.09
2023-04-23T20:46:26.564Z,93250.72
2023-04-23T20:48:54.340Z,93251.91
2023-04-23T20:51:24.485Z,93256.31
2023-04-23T20:53:51.856Z,93254.50
2023-04-23T20:56:18.736Z,93258.91
2023-04-23T20:58:45.401Z,93251.81
2023-04-23T21:01:12.041Z,93260.63
2023-04-23T21:03:39.460Z,93246.41
2023-04-23T21:06:08.964Z,93250.41
2023-04-23T21:08:42.997Z,93249.25
2023-04-23T21:11:18.235Z,93258.41
2023-04-23T21:13:45.884Z,93245.53
2023-04-23T21:16:12.921Z,93247.91
2023-04-23T21:18:40.303Z,93239.75
2023-04-23T21:21:07.942Z,93238.94
2023-04-23T21:23:34.631Z,93236.72
2023-04-23T21:26:03.272Z,93233.22
2023-04-23T21:28:29.960Z,93226.34
2023-04-23T21:30:58.318Z,93231.44
2023-04-23T21:33:25.376Z,93225.88
2023-04-23T21:35:53.176Z,93223.19
2023-04-23T21:38:20.602Z,93213.63
2023-04-23T21:40:47.239Z,93225.88
2023-04-23T21:43:14.125Z,93216.31
2023-04-23T21:45:40.842Z,93203.47
2023-04-23T21:48:07.941Z,93210.78
2023-04-23T21:50:34.840Z,93210.25
2023-04-23T21:53:04.124Z,93214.72
2023-04-23T21:55:31.827Z,93202.94
2023-04-23T21:58:09.697Z,93201.03
2023-04-23T22:00:44.709Z,93180.00
2023-04-23T22:03:12.244Z,93198.69
2023-04-23T22:05:42.128Z,93191.97
2023-04-23T22:08:09.771Z,93190.38
2023-04-23T22:10:42.959Z,93179.69
2023-04-23T22:13:11.173Z,93182.63
2023-04-23T22:15:38.488Z,93185.06
2023-04-23T22:18:05.509Z,93184.50
2023-04-23T22:20:32.401Z,93184.91
2023-04-23T22:22:59.100Z,93174.63
2023-04-23T22:25:26.426Z,93180.47
2023-04-23T22:27:53.044Z,93175.69
2023-04-23T22:30:19.708Z,93173.56
2023-04-23T22:32:46.483Z,93173.00
2023-04-23T22:35:13.213Z,93160.97
2023-04-23T22:37:39.976Z,93169.06
2023-04-23T22:40:10.482Z,93155.50
2023-04-23T22:42:37.644Z,93160.94
2023-04-23T22:45:04.981Z,93163.88
2023-04-23T22:47:31.945Z,93174.22
2023-04-23T22:49:58.939Z,93164.59
2023-04-23T22:52:26.149Z,93169.88
2023-04-23T22:54:54.897Z,93177.94
2023-04-23T22:57:21.684Z,93180.63
2023-04-23T22:59:48.311Z,93182.00
2023-04-23T23:02:16.130Z,93187.53
2023-04-23T23:04:42.988Z,93180.22
2023-04-23T23:07:10.116Z,93186.03
2023-04-23T23:09:36.860Z,93185.47
2023-04-23T23:12:04.423Z,93188.06
2023-04-23T23:14:31.957Z,93180.19
2023-04-23T23:16:59.318Z,93178.03
2023-04-23T23:19:31.086Z,93174.91
2023-04-23T23:21:57.900Z,93166.56
2023-04-23T23:24:24.634Z,93169.38
2023-04-23T23:26:51.396Z,93173.56
2023-04-23T23:29:18.175Z,93166.25
2023-04-23T23:31:45.155Z,93171.50
2023-04-23T23:34:12.524Z,93171.81
2023-04-23T23:36:39.249Z,93174.19
2023-04-23T23:39:06.868Z,93161.94
2023-04-23T23:41:33.856Z,93173.91
2023-04-23T23:44:00.647Z,93169.81
2023-04-23T23:46:27.799Z,93176.22
2023-04-23T23:48:54.690Z,93170.25
2023-04-23T23:51:21.494Z,93175.88
2023-04-23T23:53:48.246Z,93175.00
2023-04-23T23:56:15.032Z,93162.84
2023-04-23T23:58:41.881Z,93157.69
